Time;durP1;ratioP1;P1;durP2;ratioP2;P2;SDS_P1;SDS_P2;PMS_P1;PMS_P2;Temp;Humidity;BMP_temperature;BMP_pressure;BME280_temperature;BME280_humidity;BME280_pressure;Samples;Min_cycle;Max_cycle;Signal;HPM_P1;HPM_P2
2022/05/20 00:02:25;;;;;;;4.57;2.50;;;;;;;9.02;64.82;99303.91;4881359;29;20097;-71
2022/05/20 00:04:52;;;;;;;4.43;2.35;;;;;;;9.01;64.42;99305.91;4881127;29;20096;-71
2022/05/20 00:07:19;;;;;;;3.85;2.17;;;;;;;9.01;64.44;99305.91;4880901;29;20057;-72
2022/05/20 00:09:46;;;;;;;4.85;1.98;;;;;;;9.01;64.07;99297.56;4881532;29;20434;-72
2022/05/20 00:12:13;;;;;;;4.32;2.35;;;;;;;9.04;64.44;99296.09;4881109;29;20057;-72
2022/05/20 00:14:40;;;;;;;4.93;2.20;;;;;;;9.04;64.51;99302.47;4881102;29;20053;-72
2022/05/20 00:17:07;;;;;;;7.97;2.03;;;;;;;9.06;63.81;99305.69;4880905;29;20432;-71
2022/05/20 00:19:34;;;;;;;4.90;2.10;;;;;;;9.03;64.16;99306.34;4881159;29;20070;-71
2022/05/20 00:22:02;;;;;;;3.35;2.20;;;;;;;8.97;64.30;99307.66;4880859;29;20501;-73
2022/05/20 00:24:29;;;;;;;4.20;1.92;;;;;;;8.97;64.10;99313.22;4881207;29;20425;-72
2022/05/20 00:26:56;;;;;;;4.95;2.17;;;;;;;8.95;63.57;99315.50;4880645;29;20049;-72
2022/05/20 00:29:24;;;;;;;4.00;2.28;;;;;;;8.85;63.94;99315.84;4881158;29;20061;-72
2022/05/20 00:31:52;;;;;;;4.65;2.08;;;;;;;8.79;64.57;99317.16;4880555;29;20092;-72
2022/05/20 00:34:19;;;;;;;4.90;2.15;;;;;;;8.78;63.97;99328.56;4880879;29;20386;-72
2022/05/20 00:36:46;;;;;;;3.97;2.00;;;;;;;8.73;64.47;99318.44;4880797;29;20480;-72
2022/05/20 00:39:13;;;;;;;3.70;2.00;;;;;;;8.72;63.83;99327.09;4880781;29;20059;-72
2022/05/20 00:41:40;;;;;;;4.07;2.45;;;;;;;8.71;64.22;99333.78;4880495;29;20059;-73
2022/05/20 00:44:07;;;;;;;3.42;1.98;;;;;;;8.65;63.93;99333.13;4880609;29;20517;-72
2022/05/20 00:46:34;;;;;;;4.65;2.20;;;;;;;8.64;63.76;99336.22;4880481;29;20049;-73
2022/05/20 00:49:10;;;;;;;2.58;1.90;;;;;;;8.65;64.13;99329.56;4880491;29;20056;-73
2022/05/20 00:51:45;;;;;;;9.85;2.50;;;;;;;8.68;63.96;99343.56;4880550;29;20063;-74
2022/05/20 00:54:26;;;;;;;7.60;3.25;;;;;;;8.65;64.02;99338.66;4879013;29;20079;-72
2022/05/20 00:57:06;;;;;;;4.05;2.05;;;;;;;8.62;63.65;99346.84;4879987;29;20053;-72
2022/05/20 00:59:37;;;;;;;4.18;2.05;;;;;;;8.61;63.60;99348.78;4880664;29;20068;-72
2022/05/20 01:02:09;;;;;;;2.97;1.67;;;;;;;8.63;63.35;99360.38;4880295;29;20595;-73
2022/05/20 01:04:37;;;;;;;4.43;1.85;;;;;;;8.62;62.96;99360.69;4880664;29;20147;-72
2022/05/20 01:07:05;;;;;;;3.53;1.85;;;;;;;8.58;62.67;99366.06;4880407;29;20049;-73
2022/05/20 01:09:36;;;;;;;3.72;2.10;;;;;;;8.58;62.50;99365.25;4879076;29;20056;-74
2022/05/20 01:12:04;;;;;;;3.33;1.90;;;;;;;8.53;62.94;99376.50;4880239;29;20052;-72
2022/05/20 01:14:31;;;;;;;4.63;1.60;;;;;;;8.51;62.81;99376.00;4880407;29;20471;-77
2022/05/20 01:16:58;;;;;;;3.13;1.80;;;;;;;8.47;62.43;99370.28;4879946;29;20059;-73
2022/05/20 01:19:45;;;;;;;7.00;2.25;;;;;;;8.47;62.54;99384.13;4880133;29;20504;-73
2022/05/20 01:22:25;;;;;;;5.60;2.13;;;;;;;8.41;61.77;99382.66;4879494;29;20138;-74
2022/05/20 01:24:52;;;;;;;7.35;1.90;;;;;;;8.40;62.19;99381.03;4880362;29;20404;-74
2022/05/20 01:27:19;;;;;;;5.93;2.05;;;;;;;8.46;61.69;99385.28;4878620;29;20067;-74
2022/05/20 01:29:46;;;;;;;5.18;1.63;;;;;;;8.46;61.39;99385.28;4879626;29;20059;-74
2022/05/20 01:32:13;;;;;;;4.95;1.70;;;;;;;8.49;61.23;99394.91;4879698;29;20055;-73
2022/05/20 01:34:40;;;;;;;3.78;1.50;;;;;;;8.48;60.76;99407.13;4879778;29;20160;-72
2022/05/20 01:37:07;;;;;;;5.50;1.30;;;;;;;8.47;59.63;99400.78;4878166;29;20136;-73
2022/05/20 01:39:34;;;;;;;3.30;1.50;;;;;;;8.40;59.70;99392.13;4879675;29;20057;-72
2022/05/20 01:42:12;;;;;;;3.10;1.70;;;;;;;8.33;59.04;99397.31;4879873;29;20405;-73
2022/05/20 01:44:45;;;;;;;3.40;1.52;;;;;;;8.37;58.97;99403.84;4879436;29;20559;-72
2022/05/20 01:47:20;;;;;;;2.08;1.20;;;;;;;8.35;58.94;99406.13;4879722;29;20132;-72
2022/05/20 01:50:14;;;;;;;4.35;1.20;;;;;;;8.34;58.62;99403.66;4879767;29;20052;-72
2022/05/20 01:53:10;;;;;;;2.13;1.33;;;;;;;8.35;58.03;99403.34;4879778;29;20045;-71
2022/05/20 01:55:54;;;;;;;2.85;1.25;;;;;;;8.41;58.31;99410.38;4876840;29;20064;-71
2022/05/20 01:58:26;;;;;;;2.15;1.17;;;;;;;8.42;58.15;99411.19;4877866;29;20075;-71
2022/05/20 02:00:57;;;;;;;2.08;1.10;;;;;;;8.49;57.65;99422.63;4879200;29;20068;-72
2022/05/20 02:03:31;;;;;;;2.75;1.25;;;;;;;8.53;56.99;99421.66;4878576;29;20156;-70
2022/05/20 02:06:03;;;;;;;3.40;1.23;;;;;;;8.57;56.94;99430.16;4878972;29;20052;-70
2022/05/20 02:08:46;;;;;;;1.63;1.00;;;;;;;8.61;57.14;99431.97;4877188;29;20140;-70
2022/05/20 02:11:21;;;;;;;1.98;1.23;;;;;;;8.69;56.39;99431.19;4878795;29;20568;-71
2022/05/20 02:13:56;;;;;;;3.22;0.98;;;;;;;8.71;56.51;99428.88;4879440;29;20059;-71
2022/05/20 02:16:30;;;;;;;2.47;1.15;;;;;;;8.73;56.18;99439.63;4879167;29;20056;-70
2022/05/20 02:19:11;;;;;;;2.38;1.00;;;;;;;8.72;55.59;99438.84;4879139;29;20045;-73
2022/05/20 02:21:41;;;;;;;2.17;1.00;;;;;;;8.72;55.85;99441.63;4878917;29;20045;-77
2022/05/20 02:24:13;;;;;;;4.47;1.00;;;;;;;8.71;55.29;99437.19;4879269;29;20080;-73
2022/05/20 02:26:45;;;;;;;2.72;0.98;;;;;;;8.71;55.42;99434.41;4879038;29;20053;-74
2022/05/20 02:29:18;;;;;;;1.60;0.98;;;;;;;8.73;55.21;99443.25;4877643;29;20108;-73
2022/05/20 02:31:55;;;;;;;2.22;1.08;;;;;;;8.75;54.42;99440.97;4878965;29;20056;-74
2022/05/20 02:34:22;;;;;;;1.15;0.70;;;;;;;8.77;54.21;99449.75;4879278;29;20056;-74
2022/05/20 02:36:50;;;;;;;2.05;1.65;;;;;;;8.84;53.75;99457.63;4877953;29;20057;-74
2022/05/20 02:39:17;;;;;;;1.55;1.15;;;;;;;8.81;53.71;99448.00;4877807;29;20096;-74
2022/05/20 02:41:46;;;;;;;4.93;1.00;;;;;;;8.81;53.01;99450.78;4877277;29;20060;-73
2022/05/20 02:44:14;;;;;;;4.35;1.08;;;;;;;8.86;52.20;99456.16;4879261;29;20425;-73
2022/05/20 02:46:46;;;;;;;1.00;0.70;;;;;;;8.98;51.92;99439.72;4878818;29;20500;-73
2022/05/20 02:49:13;;;;;;;1.92;0.80;;;;;;;9.01;51.60;99452.94;4877888;29;20120;-73
2022/05/20 02:51:40;;;;;;;1.60;0.90;;;;;;;8.95;51.51;99456.97;4878722;29;20057;-72
2022/05/20 02:54:07;;;;;;;1.20;0.70;;;;;;;8.96;51.66;99455.03;4877943;29;20394;-73
2022/05/20 02:56:37;;;;;;;4.68;1.00;;;;;;;8.89;50.85;99452.72;4877081;29;20056;-73
2022/05/20 03:04:35;;;;;;;2.65;0.80;;;;;;;8.76;51.21;99462.00;4878878;29;20060;-73
2022/05/20 03:07:03;;;;;;;1.35;0.82;;;;;;;8.77;50.06;99463.63;4879058;29;20053;-73
2022/05/20 03:09:30;;;;;;;4.40;1.08;;;;;;;8.67;50.09;99461.16;4878549;29;20049;-73
2022/05/20 03:11:57;;;;;;;1.63;0.70;;;;;;;8.59;49.72;99470.28;4878448;29;20512;-73
2022/05/20 03:14:24;;;;;;;0.98;0.80;;;;;;;8.52;49.24;99461.63;4878624;29;20497;-74
2022/05/20 03:16:52;;;;;;;1.90;1.13;;;;;;;8.51;49.72;99473.84;4878391;29;20151;-74
2022/05/20 03:19:20;;;;;;;1.85;0.85;;;;;;;8.57;49.22;99474.50;4879195;29;20116;-74
2022/05/20 03:21:48;;;;;;;4.68;0.95;;;;;;;8.60;48.92;99480.25;4880380;29;20390;-73
2022/05/20 03:24:16;;;;;;;1.20;0.80;;;;;;;8.65;49.25;99482.84;4880648;29;20583;-73
2022/05/20 03:26:45;;;;;;;1.67;1.00;;;;;;;8.74;48.69;99475.38;4882169;29;20061;-73
2022/05/20 03:29:12;;;;;;;1.35;0.90;;;;;;;8.92;48.04;99481.78;4882022;29;20169;-73
2022/05/20 03:31:39;;;;;;;3.40;1.00;;;;;;;9.05;47.73;99480.84;4882008;29;20084;-73
2022/05/20 03:34:09;;;;;;;5.22;1.10;;;;;;;9.30;47.07;99478.09;4882008;29;20148;-74
2022/05/20 03:36:38;;;;;;;2.03;0.90;;;;;;;9.48;46.89;99484.47;4881648;29;20100;-72
2022/05/20 03:39:07;;;;;;;1.50;0.88;;;;;;;9.54;46.91;99487.88;4880890;29;20088;-72
2022/05/20 03:41:35;;;;;;;1.92;0.90;;;;;;;9.53;46.41;99492.63;4881583;29;20152;-72
2022/05/20 03:44:03;;;;;;;1.52;0.98;;;;;;;9.40;46.52;99498.34;4881980;29;20101;-72
2022/05/20 03:46:31;;;;;;;2.95;1.10;;;;;;;9.32;46.58;99502.75;4881798;29;20073;-72
2022/05/20 03:48:59;;;;;;;3.85;0.77;;;;;;;9.24;46.52;99512.69;4882073;29;20055;-72
2022/05/20 03:51:26;;;;;;;11.38;0.80;;;;;;;9.21;46.97;99507.78;4881567;29;20053;-76
2022/05/20 03:53:53;;;;;;;1.27;0.82;;;;;;;9.22;47.35;99508.63;4882138;29;20059;-71
2022/05/20 03:56:20;;;;;;;1.58;1.10;;;;;;;9.24;47.11;99521.00;4881449;29;20197;-71
2022/05/20 03:58:48;;;;;;;6.20;1.00;;;;;;;9.32;47.52;99517.44;4881510;29;20157;-71
2022/05/20 04:04:01;;;;;;;1.20;0.80;;;;;;;9.39;46.47;99530.03;4881433;29;20056;-72
2022/05/20 04:06:28;;;;;;;4.38;0.98;;;;;;;9.42;47.25;99526.59;4881293;29;20056;-73
2022/05/20 04:08:54;;;;;;;2.75;1.10;;;;;;;9.25;47.13;99530.16;4881493;29;20055;-72
2022/05/20 04:11:22;;;;;;;1.25;0.80;;;;;;;9.20;46.68;99528.38;4884575;29;20057;-72
2022/05/20 04:13:49;;;;;;;2.00;1.00;;;;;;;9.24;46.31;99523.78;4880976;29;20483;-72
2022/05/20 04:16:16;;;;;;;2.10;0.90;;;;;;;9.28;47.06;99532.28;4880973;29;20053;-72
2022/05/20 04:18:44;;;;;;;2.10;1.00;;;;;;;9.32;46.81;99530.50;4881168;29;20145;-71
2022/05/20 04:21:13;;;;;;;7.05;0.95;;;;;;;9.46;46.75;99528.41;4880818;29;20060;-71
2022/05/20 04:23:41;;;;;;;2.58;0.95;;;;;;;9.62;46.36;99531.50;4881004;29;20056;-73
2022/05/20 04:26:09;;;;;;;2.17;0.85;;;;;;;9.77;46.21;99540.16;4880635;29;20052;-72
2022/05/20 04:28:36;;;;;;;1.20;0.80;;;;;;;10.02;45.50;99538.50;4880894;29;20049;-73
2022/05/20 04:31:06;;;;;;;1.73;0.85;;;;;;;10.09;45.68;99530.50;4879280;29;20071;-72
2022/05/20 04:33:33;;;;;;;5.97;1.42;;;;;;;9.91;45.35;99542.75;4880670;29;20460;-72
2022/05/20 04:36:00;;;;;;;1.92;0.90;;;;;;;9.91;45.79;99542.75;4881101;29;20076;-71
2022/05/20 04:38:27;;;;;;;1.73;0.90;;;;;;;10.11;45.97;99542.94;4879201;29;20060;-71
2022/05/20 04:49:12;;;;;;;2.95;1.40;;;;;;;10.29;44.98;99557.63;4880154;29;20530;-71
2022/05/20 04:51:40;;;;;;;3.47;1.33;;;;;;;10.59;44.05;99554.59;4880307;29;20061;-73
2022/05/20 04:56:55;;;;;;;1.70;0.93;;;;;;;11.07;43.36;99554.22;4880275;29;20483;-72
2022/05/20 04:59:23;;;;;;;5.20;1.27;;;;;;;11.01;43.11;99549.97;4879801;29;20087;-72
2022/05/20 05:01:51;;;;;;;2.47;1.10;;;;;;;10.98;43.40;99539.53;4880193;29;20057;-71
2022/05/20 05:04:20;;;;;;;3.55;2.00;;;;;;;10.94;43.00;99539.41;4880566;29;20056;-71
2022/05/20 05:06:47;;;;;;;3.95;0.93;;;;;;;10.90;43.67;99548.75;4880014;29;20053;-71
2022/05/20 05:09:15;;;;;;;3.28;1.10;;;;;;;11.07;43.13;99549.47;4880123;29;20147;-71
2022/05/20 05:11:42;;;;;;;1.98;1.00;;;;;;;11.30;42.22;99543.59;4880127;29;20103;-71
2022/05/20 05:14:13;;;;;;;1.65;0.90;;;;;;;11.24;42.22;99553.28;4880151;29;20548;-71
2022/05/20 05:16:41;;;;;;;5.30;1.13;;;;;;;11.08;42.44;99548.31;4879771;29;20152;-72
2022/05/20 05:19:09;;;;;;;1.70;1.20;;;;;;;11.20;41.76;99550.38;4880044;29;20045;-70
2022/05/20 05:21:36;;;;;;;2.10;1.10;;;;;;;11.25;41.50;99550.19;4879748;29;20509;-69
2022/05/20 05:24:05;;;;;;;1.30;0.90;;;;;;;11.32;41.16;99552.44;4878454;29;20101;-70
2022/05/20 05:26:34;;;;;;;2.53;1.33;;;;;;;11.44;39.85;99558.91;4879880;29;20056;-69
2022/05/20 05:29:03;;;;;;;2.58;1.20;;;;;;;11.56;39.72;99561.78;4880032;29;20055;-71
2022/05/20 05:31:30;;;;;;;2.30;1.05;;;;;;;11.75;39.43;99562.16;4879804;29;20065;-70
2022/05/20 05:33:57;;;;;;;3.88;1.10;;;;;;;11.95;39.47;99566.91;4879952;29;20152;-70
2022/05/20 05:36:25;;;;;;;3.33;1.23;;;;;;;12.32;39.34;99563.09;4879735;29;20147;-70
2022/05/20 05:38:52;;;;;;;3.65;1.00;;;;;;;12.52;38.80;99567.81;4879414;29;20417;-70
2022/05/20 05:41:20;;;;;;;2.08;1.20;;;;;;;12.77;37.84;99566.69;4879241;29;20063;-70
2022/05/20 05:43:47;;;;;;;2.67;1.00;;;;;;;13.04;37.29;99562.47;4879271;29;20057;-70
2022/05/20 05:46:15;;;;;;;4.43;1.20;;;;;;;13.01;37.34;99562.34;4873829;29;20147;-70
2022/05/20 05:48:42;;;;;;;1.75;0.95;;;;;;;12.88;36.35;99559.50;4879387;29;20131;-70
2022/05/20 05:51:09;;;;;;;1.42;0.98;;;;;;;13.13;35.84;99553.97;4879029;29;20060;-69
2022/05/20 05:53:36;;;;;;;0.82;0.60;;;;;;;13.71;34.96;99547.88;4879112;29;20041;-70
2022/05/20 05:56:06;;;;;;;1.73;0.90;;;;;;;14.08;33.47;99554.97;4879214;29;20105;-69
2022/05/20 05:58:33;;;;;;;3.53;0.90;;;;;;;14.58;32.67;99553.25;4879381;29;20049;-70
2022/05/20 06:01:00;;;;;;;1.20;0.70;;;;;;;16.29;30.02;99563.38;4879052;29;20096;-70
2022/05/20 06:03:28;;;;;;;1.55;1.00;;;;;;;19.47;25.45;99565.63;4877699;29;20053;-70
2022/05/20 06:05:55;;;;;;;1.45;0.85;;;;;;;23.49;20.71;99562.44;4878989;29;20531;-70
2022/05/20 06:08:23;;;;;;;2.85;1.20;;;;;;;25.68;18.01;99565.78;4878988;29;20076;-70
2022/05/20 06:10:50;;;;;;;0.80;0.70;;;;;;;26.51;16.76;99576.03;4879133;29;20136;-70
2022/05/20 06:13:26;;;;;;;4.82;1.13;;;;;;;24.78;18.14;99571.63;4879035;29;20053;-70
2022/05/20 06:15:56;;;;;;;1.95;0.90;;;;;;;22.40;20.00;99575.22;4879089;29;20076;-70
2022/05/20 06:18:26;;;;;;;1.55;0.90;;;;;;;20.95;21.95;99582.19;4878754;29;20433;-72
2022/05/20 06:20:55;;;;;;;2.67;0.90;;;;;;;20.94;21.77;99583.38;4877504;29;20084;-70
2022/05/20 06:23:24;;;;;;;3.40;0.95;;;;;;;19.63;22.47;99574.63;4878987;29;20085;-69
2022/05/20 06:25:51;;;;;;;6.32;0.82;;;;;;;18.07;24.14;99571.34;4878879;29;20049;-70
2022/05/20 06:28:38;;;;;;;3.58;0.85;;;;;;;17.15;25.25;99581.50;4879187;29;20045;-70
2022/05/20 06:31:06;;;;;;;1.88;0.80;;;;;;;16.44;25.15;99577.34;4878904;29;20057;-71
2022/05/20 06:33:33;;;;;;;1.38;0.85;;;;;;;17.64;24.06;99568.25;4878660;29;20056;-70
2022/05/20 06:41:31;;;;;;;1.38;1.10;;;;;;;16.21;24.92;99584.88;4878481;29;20053;-69
2022/05/20 06:43:58;;;;;;;2.00;1.10;;;;;;;15.79;25.24;99583.94;4877481;29;20053;-69
2022/05/20 06:46:25;;;;;;;1.15;0.75;;;;;;;15.21;25.92;99573.69;4878431;29;20056;-70
2022/05/20 06:49:00;;;;;;;1.40;0.80;;;;;;;15.01;26.06;99574.75;4878608;29;20120;-69
2022/05/20 06:51:35;;;;;;;1.52;1.08;;;;;;;17.22;24.04;99590.03;4878284;29;20120;-70
2022/05/20 06:54:05;;;;;;;2.00;0.90;;;;;;;21.88;19.21;99570.53;4880778;29;20049;-70
2022/05/20 06:56:32;;;;;;;1.58;0.93;;;;;;;26.65;15.15;99565.16;4883093;29;20057;-70
2022/05/20 06:59:01;;;;;;;4.95;0.80;;;;;;;30.29;12.92;99580.16;4882362;29;20572;-69
2022/05/20 07:01:28;;;;;;;1.30;1.10;;;;;;;32.30;11.51;99567.94;4893640;29;20508;-70
2022/05/20 07:03:56;;;;;;;1.77;0.80;;;;;;;34.21;11.05;99576.38;4901033;29;20084;-69
2022/05/20 07:06:24;;;;;;;3.85;1.08;;;;;;;35.94;9.74;99571.22;4900917;29;20147;-69
2022/05/20 07:08:51;;;;;;;1.87;1.10;;;;;;;36.64;9.08;99571.88;4900955;29;20464;-69
2022/05/20 07:11:21;;;;;;;3.97;1.08;;;;;;;37.99;8.27;99572.13;4900937;29;20453;-70
2022/05/20 07:13:50;;;;;;;1.05;0.82;;;;;;;39.88;7.42;99580.84;4900928;29;20060;-69
2022/05/20 07:16:18;;;;;;;2.70;1.10;;;;;;;41.67;6.34;99577.28;4900256;29;20147;-70
2022/05/20 07:18:46;;;;;;;2.10;1.30;;;;;;;42.88;6.22;99573.00;4900734;29;20053;-69
2022/05/20 07:21:13;;;;;;;2.30;0.93;;;;;;;43.52;5.64;99576.03;4900617;29;20049;-69
2022/05/20 07:23:40;;;;;;;2.95;1.10;;;;;;;44.38;5.25;99571.25;4901461;29;20056;-70
2022/05/20 07:26:07;;;;;;;1.75;1.05;;;;;;;44.62;4.97;99573.94;4899089;29;20423;-70
2022/05/20 07:28:34;;;;;;;2.43;1.10;;;;;;;44.73;5.16;99574.50;4901097;29;20063;-69
2022/05/20 07:31:01;;;;;;;5.60;3.03;;;;;;;45.15;4.94;99565.81;4883154;29;20057;-69
2022/05/20 07:33:30;;;;;;;9.48;1.40;;;;;;;45.06;5.01;99578.06;4881452;29;20053;-69
2022/05/20 07:35:57;;;;;;;2.03;1.33;;;;;;;45.41;4.60;99593.00;4881526;29;20180;-69
2022/05/20 07:38:24;;;;;;;2.55;1.80;;;;;;;44.99;4.85;99585.41;4881251;29;20053;-69
2022/05/20 07:40:55;;;;;;;4.38;2.03;;;;;;;45.15;4.66;99592.28;4881724;29;20441;-69
2022/05/20 07:43:22;;;;;;;6.00;1.80;;;;;;;44.51;4.53;99592.56;4881683;29;20048;-69
2022/05/20 07:45:51;;;;;;;5.60;2.00;;;;;;;43.74;4.66;99584.47;4881317;29;20063;-68
2022/05/20 07:48:19;;;;;;;2.72;1.55;;;;;;;43.30;4.86;99588.13;4881509;29;20564;-68
2022/05/20 07:50:51;;;;;;;4.40;1.60;;;;;;;42.38;4.99;99595.47;4881145;29;20466;-69
2022/05/20 07:53:20;;;;;;;3.25;1.42;;;;;;;41.91;5.20;99597.81;4881656;29;20059;-69
2022/05/20 07:55:57;;;;;;;3.05;1.60;;;;;;;42.66;4.60;99590.84;4881561;29;20061;-69
2022/05/20 07:58:30;;;;;;;3.60;1.37;;;;;;;44.17;4.66;99602.59;4881692;29;20143;-69
2022/05/20 08:01:21;;;;;;;3.67;1.50;;;;;;;44.61;3.91;99589.97;4881205;29;20084;-69
2022/05/20 08:06:39;;;;;;;3.53;1.50;;;;;;;42.97;4.83;99590.16;4880355;29;20049;-68
2022/05/20 08:09:06;;;;;;;3.35;1.40;;;;;;;44.05;4.30;99590.31;4881126;29;20059;-69
2022/05/20 08:11:33;;;;;;;2.60;1.52;;;;;;;44.65;4.18;99596.31;4880938;29;20060;-69
2022/05/20 08:14:01;;;;;;;4.05;1.42;;;;;;;45.38;3.51;99594.16;4881069;29;20538;-69
2022/05/20 08:16:28;;;;;;;2.55;1.63;;;;;;;44.80;3.89;99593.59;4880997;29;20485;-70
2022/05/20 08:18:55;;;;;;;3.75;1.80;;;;;;;45.76;3.44;99583.53;4881100;29;20080;-69
2022/05/20 08:21:22;;;;;;;2.67;1.60;;;;;;;47.12;3.02;99588.16;4881045;29;20060;-69
2022/05/20 08:23:49;;;;;;;6.37;1.60;;;;;;;46.66;2.96;99582.66;4881312;29;20052;-73
2022/05/20 08:26:18;;;;;;;3.95;1.95;;;;;;;45.35;3.54;99582.69;4881025;29;20559;-68
2022/05/20 08:28:46;;;;;;;5.88;3.25;;;;;;;44.96;3.45;99580.69;4880808;29;20052;-69
2022/05/20 08:31:15;;;;;;;2.47;1.98;;;;;;;45.11;3.30;99586.75;4880708;29;20091;-68
2022/05/20 08:33:42;;;;;;;9.05;1.80;;;;;;;46.38;3.32;99581.28;4880804;29;20416;-68
2022/05/20 08:36:10;;;;;;;2.88;1.67;;;;;;;47.03;2.85;99570.28;4881024;29;20060;-69
2022/05/20 08:38:37;;;;;;;5.10;1.48;;;;;;;48.17;2.28;99572.81;4880906;29;20155;-69
2022/05/20 08:41:05;;;;;;;2.80;1.58;;;;;;;48.09;2.69;99577.94;4880661;29;20088;-69
2022/05/20 08:43:33;;;;;;;5.22;3.15;;;;;;;47.69;2.27;99574.00;4880384;29;20135;-69
2022/05/20 08:46:05;;;;;;;3.05;1.65;;;;;;;47.21;2.28;99561.09;4880486;29;20061;-69
2022/05/20 08:48:33;;;;;;;1.98;1.25;;;;;;;46.95;2.43;99563.56;4880491;29;20053;-69
2022/05/20 08:51:01;;;;;;;2.70;1.60;;;;;;;46.73;2.76;99564.25;4880407;29;20409;-69
2022/05/20 08:53:36;;;;;;;3.05;1.70;;;;;;;47.30;2.45;99559.78;4880235;29;20086;-70
2022/05/20 08:56:09;;;;;;;2.88;1.73;;;;;;;47.59;2.65;99561.22;4880284;29;20140;-68
2022/05/20 08:58:39;;;;;;;4.38;1.50;;;;;;;47.99;2.40;99552.56;4880106;29;20088;-69
2022/05/20 09:01:08;;;;;;;4.05;1.48;;;;;;;48.45;2.25;99551.13;4880507;29;20057;-68
2022/05/20 09:03:35;;;;;;;39.40;24.20;;;;;;;48.38;1.93;99543.88;4880227;29;20072;-70
2022/05/20 09:06:11;;;;;;;4.40;1.92;;;;;;;47.93;2.44;99549.81;4880221;29;20135;-69
2022/05/20 09:08:38;;;;;;;2.88;1.70;;;;;;;47.57;2.15;99546.28;4880514;29;20061;-69
2022/05/20 09:11:13;;;;;;;12.63;2.28;;;;;;;47.92;2.15;99540.19;4880095;29;20059;-70
2022/05/20 09:16:28;;;;;;;3.17;1.80;;;;;;;48.84;1.52;99545.31;4879662;29;20497;-69
2022/05/20 09:19:25;;;;;;;3.17;1.55;;;;;;;48.48;1.59;99550.72;4880013;29;20045;-69
2022/05/20 09:22:06;;;;;;;2.20;1.42;;;;;;;48.09;1.79;99542.50;4879913;29;20135;-69
2022/05/20 09:24:42;;;;;;;2.22;1.50;;;;;;;47.81;2.03;99536.81;4880545;29;20045;-68
2022/05/20 09:27:26;;;;;;;4.30;2.15;;;;;;;47.57;1.99;99537.41;4879835;29;20060;-68
2022/05/20 09:29:56;;;;;;;2.80;1.40;;;;;;;47.18;2.43;99529.06;4879497;29;20104;-68
2022/05/20 09:32:26;;;;;;;2.10;1.30;;;;;;;45.69;2.80;99537.19;4879740;29;20147;-68
2022/05/20 09:35:20;;;;;;;4.05;1.30;;;;;;;38.64;4.80;99531.47;4894205;29;20143;-69
2022/05/20 09:37:53;;;;;;;5.18;1.27;;;;;;;33.65;7.20;99527.31;4879406;29;20136;-68
2022/05/20 09:40:41;;;;;;;2.78;1.10;;;;;;;30.19;8.18;99527.59;4879485;29;20136;-68
2022/05/20 09:43:28;;;;;;;5.20;1.40;;;;;;;27.12;10.82;99522.91;4879686;29;20053;-68
2022/05/20 09:45:58;;;;;;;2.22;1.40;;;;;;;25.17;12.06;99519.81;4879570;29;20048;-69
2022/05/20 09:48:38;;;;;;;4.07;1.40;;;;;;;23.99;12.60;99526.69;4879497;29;20052;-72
2022/05/20 09:51:13;;;;;;;12.35;1.73;;;;;;;23.06;13.30;99530.69;4879418;29;20063;-69
2022/05/20 09:53:43;;;;;;;4.38;1.73;;;;;;;22.35;14.32;99518.94;4879348;29;20080;-74
2022/05/20 09:56:29;;;;;;;6.53;1.38;;;;;;;21.46;15.12;99530.88;4879569;29;20087;-72
2022/05/20 09:59:15;;;;;;;2.17;1.27;;;;;;;20.76;15.36;99525.16;4878344;29;20061;-72
2022/05/20 10:01:59;;;;;;;3.22;1.40;;;;;;;20.40;15.33;99518.59;4879240;29;20069;-73
2022/05/20 10:04:44;;;;;;;13.73;1.42;;;;;;;19.91;16.12;99519.16;4879534;29;20154;-72
2022/05/20 10:07:17;;;;;;;2.03;1.17;;;;;;;19.17;16.99;99523.47;4879138;29;20063;-72
2022/05/20 10:09:52;;;;;;;4.13;1.33;;;;;;;18.71;17.89;99515.78;4878793;29;20420;-72
2022/05/20 10:12:33;;;;;;;3.78;1.33;;;;;;;18.23;18.82;99519.63;4878783;29;20401;-68
2022/05/20 10:15:15;;;;;;;4.55;1.10;;;;;;;18.09;19.11;99511.81;4879353;29;20060;-69
2022/05/20 10:18:09;;;;;;;5.80;1.58;;;;;;;17.66;19.38;99512.44;4878701;29;20064;-71
2022/05/20 10:21:00;;;;;;;5.35;1.50;;;;;;;17.22;19.91;99511.31;4878991;29;20060;-70
2022/05/20 10:23:37;;;;;;;6.10;2.40;;;;;;;17.08;19.78;99500.66;4878838;29;20051;-69
2022/05/20 10:26:16;;;;;;;4.03;1.73;;;;;;;17.10;19.79;99503.91;4878755;29;20060;-68
2022/05/20 10:34:53;;;;;;;2.88;1.38;;;;;;;16.68;20.61;99502.38;4878681;29;20416;-69
2022/05/20 10:37:53;;;;;;;3.50;1.33;;;;;;;16.80;20.70;99502.19;4878651;29;20087;-68
2022/05/20 10:40:33;;;;;;;;;;;;;;;16.30;21.48;99504.06;4860476;29;20053;-68
2022/05/20 10:43:09;;;;;;;;;;;;;;;16.30;21.35;99504.06;4860385;29;19978;-68
2022/05/20 10:48:45;;;;;;;1.77;1.00;;;;;;;16.70;20.38;99506.44;4860228;29;20059;-69
2022/05/20 10:51:44;;;;;;;2.22;1.02;;;;;;;16.67;20.67;99497.94;4860052;29;20052;-68
2022/05/20 10:54:14;;;;;;;3.67;1.25;;;;;;;16.60;20.52;99492.19;4859910;29;20073;-70
2022/05/20 10:57:00;;;;;;;6.40;1.00;;;;;;;16.49;20.99;99499.63;4861437;29;20103;-68
2022/05/20 10:59:45;;;;;;;2.22;0.82;;;;;;;15.96;21.49;99499.34;4865642;29;20061;-67
2022/05/20 11:02:24;;;;;;;9.57;1.08;;;;;;;15.84;21.54;99490.28;4862889;29;20140;-68
2022/05/20 11:05:17;;;;;;;12.68;1.50;;;;;;;15.86;21.85;99488.72;4859853;29;20148;-68
2022/05/20 11:07:59;;;;;;;3.75;1.13;;;;;;;15.90;22.31;99481.19;4859806;29;20531;-69
2022/05/20 11:10:31;;;;;;;3.05;1.08;;;;;;;15.94;21.92;99489.66;4859964;29;20166;-68
2022/05/20 11:13:15;;;;;;;1.55;0.90;;;;;;;15.90;21.55;99483.97;4860050;29;20140;-67
2022/05/20 11:15:56;;;;;;;7.40;1.13;;;;;;;15.68;21.84;99476.31;4859909;29;20057;-68
2022/05/20 11:18:41;;;;;;;3.85;1.10;;;;;;;15.76;21.91;99485.69;4859887;29;20070;-69
2022/05/20 11:21:47;;;;;;;3.30;1.10;;;;;;;16.05;21.28;99476.69;4860242;29;20054;-72
2022/05/20 11:24:33;;;;;;;8.10;1.30;;;;;;;16.05;21.54;99471.84;4858557;29;20068;-68
2022/05/20 11:27:20;;;;;;;2.40;1.50;;;;;;;16.02;21.60;99471.81;4878195;29;20420;-69
2022/05/20 11:30:23;;;;;;;2.15;1.00;;;;;;;16.06;21.20;99475.50;4874743;29;20639;-66
2022/05/20 11:33:06;;;;;;;2.28;1.02;;;;;;;15.75;21.68;99470.84;4870703;29;20067;-71
2022/05/20 11:36:01;;;;;;;2.88;0.82;;;;;;;15.62;22.29;99466.56;4873081;29;20512;-69
2022/05/20 11:39:01;;;;;;;2.17;1.25;;;;;;;15.89;21.62;99473.94;4876584;29;20053;-70
2022/05/20 11:41:53;;;;;;;2.17;0.90;;;;;;;16.06;21.94;99469.88;4878446;29;20601;-69
2022/05/20 11:44:45;;;;;;;2.72;1.02;;;;;;;15.90;21.78;99463.56;4878366;29;20045;-69
2022/05/20 11:48:07;;;;;;;3.50;1.10;;;;;;;15.85;21.88;99458.22;4878656;29;20530;-71
2022/05/20 11:50:33;;;;;;;4.28;1.17;;;;;;;15.76;21.81;99455.66;4820311;29;20514;-68
2022/05/20 11:53:24;;;;;;;5.00;1.02;;;;;;;15.75;21.39;99440.00;4816575;29;20062;-70
2022/05/20 11:55:58;;;;;;;2.22;1.20;;;;;;;15.82;21.64;99454.19;4810770;29;20584;-69
2022/05/20 11:58:36;;;;;;;1.45;1.00;;;;;;;15.89;21.48;99447.88;4812429;29;20066;-71
2022/05/20 12:01:05;;;;;;;4.25;0.90;;;;;;;15.86;20.88;99443.81;4816410;29;20062;-69
2022/05/20 12:04:07;;;;;;;2.50;1.20;;;;;;;15.80;21.04;99441.69;4823208;29;20138;-69
2022/05/20 12:06:25;;;;;;;3.90;1.13;;;;;;;15.79;21.17;99426.03;4823441;29;20130;-69
2022/05/20 12:08:58;;;;;;;2.05;1.17;;;;;;;15.87;20.88;99441.84;4822460;29;20069;-70
2022/05/20 12:11:37;;;;;;;2.60;1.05;;;;;;;15.75;21.51;99431.56;4822107;29;20141;-74
2022/05/20 12:14:08;;;;;;;3.22;1.23;;;;;;;15.76;20.99;99433.22;4819865;29;20086;-73
2022/05/20 12:17:00;;;;;;;2.92;1.30;;;;;;;15.70;21.32;99426.28;4821889;29;20064;-69
2022/05/20 12:25:32;;;;;;;2.83;1.52;;;;;;;15.46;22.12;99420.13;4881352;29;20566;-69
2022/05/20 12:28:27;;;;;;;2.38;1.20;;;;;;;15.39;22.20;99417.16;4879151;29;20057;-71
2022/05/20 12:31:24;;;;;;;2.00;0.95;;;;;;;15.23;22.27;99408.81;4874464;29;20464;-70
2022/05/20 12:33:51;;;;;;;2.58;0.98;;;;;;;15.19;22.35;99399.47;4878257;29;20056;-69
2022/05/20 12:36:22;;;;;;;5.32;0.95;;;;;;;15.33;22.27;99411.00;4879907;29;20053;-70
2022/05/20 12:38:50;;;;;;;7.97;1.38;;;;;;;15.32;22.05;99386.97;4879574;29;20394;-69
2022/05/20 12:41:48;;;;;;;3.22;0.90;;;;;;;15.20;22.41;99392.72;4879216;29;20060;-69
2022/05/20 12:44:15;;;;;;;5.50;1.15;;;;;;;15.01;22.60;99401.06;4874613;29;20049;-68
2022/05/20 12:46:52;;;;;;;4.68;1.20;;;;;;;14.94;23.02;99400.09;4880345;29;20065;-67
2022/05/20 12:49:21;;;;;;;1.85;0.90;;;;;;;15.02;22.60;99391.50;4880256;29;20061;-68
2022/05/20 12:51:51;;;;;;;1.38;0.90;;;;;;;15.17;22.60;99393.44;4875853;29;20473;-68